sensor_id;sensor_type;location;lat;lon;timestamp;P1;durP1;ratioP1;P2;durP2;ratioP2
11628;SDS011;5870;52.320;4.970;2022-08-14T00:01:20;9.38;;;3.53;;
11628;SDS011;5870;52.320;4.970;2022-08-14T00:03:45;4.97;;;4.35;;
11628;SDS011;5870;52.320;4.970;2022-08-14T00:06:11;5.20;;;3.85;;
11628;SDS011;5870;52.320;4.970;2022-08-14T00:08:37;5.30;;;3.97;;
11628;SDS011;5870;52.320;4.970;2022-08-14T00:11:02;3.88;;;3.58;;
11628;SDS011;5870;52.320;4.970;2022-08-14T00:13:28;5.68;;;3.47;;
11628;SDS011;5870;52.320;4.970;2022-08-14T00:15:55;6.18;;;3.35;;
11628;SDS011;5870;52.320;4.970;2022-08-14T00:18:23;5.43;;;3.85;;
11628;SDS011;5870;52.320;4.970;2022-08-14T00:20:50;4.38;;;3.60;;
11628;SDS011;5870;52.320;4.970;2022-08-14T00:23:16;10.70;;;3.97;;
11628;SDS011;5870;52.320;4.970;2022-08-14T00:25:45;7.82;;;3.85;;
11628;SDS011;5870;52.320;4.970;2022-08-14T00:28:12;4.75;;;3.25;;
11628;SDS011;5870;52.320;4.970;2022-08-14T00:30:38;5.95;;;3.80;;
11628;SDS011;5870;52.320;4.970;2022-08-14T00:33:05;5.72;;;3.47;;
11628;SDS011;5870;52.320;4.970;2022-08-14T00:35:30;10.60;;;3.75;;
11628;SDS011;5870;52.320;4.970;2022-08-14T00:37:57;4.00;;;3.55;;
11628;SDS011;5870;52.320;4.970;2022-08-14T00:40:22;5.40;;;3.63;;
11628;SDS011;5870;52.320;4.970;2022-08-14T00:42:49;4.22;;;3.58;;
11628;SDS011;5870;52.320;4.970;2022-08-14T00:45:15;7.22;;;4.32;;
11628;SDS011;5870;52.320;4.970;2022-08-14T00:47:43;8.20;;;3.88;;
11628;SDS011;5870;52.320;4.970;2022-08-14T00:50:10;10.70;;;4.35;;
11628;SDS011;5870;52.320;4.970;2022-08-14T00:52:37;9.10;;;4.40;;
11628;SDS011;5870;52.320;4.970;2022-08-14T00:55:04;6.82;;;4.03;;
11628;SDS011;5870;52.320;4.970;2022-08-14T00:57:32;6.07;;;4.50;;
11628;SDS011;5870;52.320;4.970;2022-08-14T01:00:00;4.90;;;4.15;;
11628;SDS011;5870;52.320;4.970;2022-08-14T01:02:29;5.35;;;4.32;;
11628;SDS011;5870;52.320;4.970;2022-08-14T01:04:55;11.27;;;4.38;;
11628;SDS011;5870;52.320;4.970;2022-08-14T01:07:23;16.42;;;4.35;;
11628;SDS011;5870;52.320;4.970;2022-08-14T01:09:51;5.47;;;4.22;;
11628;SDS011;5870;52.320;4.970;2022-08-14T01:12:19;6.40;;;4.50;;
11628;SDS011;5870;52.320;4.970;2022-08-14T01:14:45;6.43;;;4.43;;
11628;SDS011;5870;52.320;4.970;2022-08-14T01:17:11;5.65;;;4.28;;
11628;SDS011;5870;52.320;4.970;2022-08-14T01:19:37;8.82;;;4.10;;
11628;SDS011;5870;52.320;4.970;2022-08-14T01:22:21;11.10;;;4.20;;
11628;SDS011;5870;52.320;4.970;2022-08-14T01:24:47;8.35;;;4.40;;
11628;SDS011;5870;52.320;4.970;2022-08-14T01:27:17;8.57;;;4.63;;
11628;SDS011;5870;52.320;4.970;2022-08-14T01:29:45;6.63;;;4.10;;
11628;SDS011;5870;52.320;4.970;2022-08-14T01:32:11;9.20;;;4.25;;
11628;SDS011;5870;52.320;4.970;2022-08-14T01:34:37;5.90;;;4.25;;
11628;SDS011;5870;52.320;4.970;2022-08-14T01:37:03;4.60;;;4.20;;
11628;SDS011;5870;52.320;4.970;2022-08-14T01:39:29;10.38;;;4.22;;
11628;SDS011;5870;52.320;4.970;2022-08-14T01:41:55;8.55;;;4.35;;
11628;SDS011;5870;52.320;4.970;2022-08-14T01:44:25;7.32;;;4.85;;
11628;SDS011;5870;52.320;4.970;2022-08-14T01:46:55;5.40;;;4.28;;
11628;SDS011;5870;52.320;4.970;2022-08-14T01:49:23;6.65;;;4.65;;
11628;SDS011;5870;52.320;4.970;2022-08-14T01:51:49;4.85;;;4.35;;
11628;SDS011;5870;52.320;4.970;2022-08-14T01:54:21;5.38;;;4.50;;
11628;SDS011;5870;52.320;4.970;2022-08-14T01:56:52;8.23;;;4.13;;
11628;SDS011;5870;52.320;4.970;2022-08-14T02:01:49;5.40;;;4.32;;
11628;SDS011;5870;52.320;4.970;2022-08-14T02:04:20;5.60;;;4.47;;
11628;SDS011;5870;52.320;4.970;2022-08-14T02:06:47;6.75;;;4.32;;
11628;SDS011;5870;52.320;4.970;2022-08-14T02:09:17;5.25;;;4.50;;
11628;SDS011;5870;52.320;4.970;2022-08-14T02:11:44;6.68;;;4.75;;
11628;SDS011;5870;52.320;4.970;2022-08-14T02:14:11;7.85;;;4.80;;
11628;SDS011;5870;52.320;4.970;2022-08-14T02:16:38;6.40;;;4.40;;
11628;SDS011;5870;52.320;4.970;2022-08-14T02:19:11;4.93;;;4.22;;
11628;SDS011;5870;52.320;4.970;2022-08-14T02:21:39;7.85;;;4.63;;
11628;SDS011;5870;52.320;4.970;2022-08-14T02:24:07;6.28;;;5.13;;
11628;SDS011;5870;52.320;4.970;2022-08-14T02:26:34;10.40;;;5.07;;
11628;SDS011;5870;52.320;4.970;2022-08-14T02:29:12;9.68;;;5.15;;
11628;SDS011;5870;52.320;4.970;2022-08-14T02:31:41;6.13;;;4.40;;
11628;SDS011;5870;52.320;4.970;2022-08-14T02:34:13;8.02;;;4.32;;
11628;SDS011;5870;52.320;4.970;2022-08-14T02:36:42;7.18;;;4.75;;
11628;SDS011;5870;52.320;4.970;2022-08-14T02:39:09;9.18;;;4.78;;
11628;SDS011;5870;52.320;4.970;2022-08-14T02:41:36;6.28;;;4.82;;
11628;SDS011;5870;52.320;4.970;2022-08-14T02:44:03;6.65;;;5.07;;
11628;SDS011;5870;52.320;4.970;2022-08-14T02:46:30;19.73;;;4.60;;
11628;SDS011;5870;52.320;4.970;2022-08-14T02:48:56;5.22;;;4.72;;
11628;SDS011;5870;52.320;4.970;2022-08-14T02:51:22;8.60;;;4.25;;
11628;SDS011;5870;52.320;4.970;2022-08-14T02:53:49;8.02;;;4.75;;
11628;SDS011;5870;52.320;4.970;2022-08-14T02:56:15;7.30;;;4.78;;
11628;SDS011;5870;52.320;4.970;2022-08-14T02:58:43;6.22;;;5.05;;
11628;SDS011;5870;52.320;4.970;2022-08-14T03:01:17;8.82;;;5.00;;
11628;SDS011;5870;52.320;4.970;2022-08-14T03:03:44;6.18;;;4.70;;
11628;SDS011;5870;52.320;4.970;2022-08-14T03:06:12;7.28;;;4.53;;
11628;SDS011;5870;52.320;4.970;2022-08-14T03:08:39;5.90;;;5.18;;
11628;SDS011;5870;52.320;4.970;2022-08-14T03:11:07;6.45;;;4.78;;
11628;SDS011;5870;52.320;4.970;2022-08-14T03:13:35;9.93;;;4.63;;
11628;SDS011;5870;52.320;4.970;2022-08-14T03:16:09;8.07;;;5.05;;
11628;SDS011;5870;52.320;4.970;2022-08-14T03:18:40;6.93;;;4.65;;
11628;SDS011;5870;52.320;4.970;2022-08-14T03:21:07;6.03;;;5.43;;
11628;SDS011;5870;52.320;4.970;2022-08-14T03:23:42;6.25;;;4.75;;
11628;SDS011;5870;52.320;4.970;2022-08-14T03:26:10;4.60;;;4.18;;
11628;SDS011;5870;52.320;4.970;2022-08-14T03:28:38;15.80;;;5.13;;
11628;SDS011;5870;52.320;4.970;2022-08-14T03:31:06;7.97;;;4.50;;
11628;SDS011;5870;52.320;4.970;2022-08-14T03:33:33;8.10;;;5.05;;
11628;SDS011;5870;52.320;4.970;2022-08-14T03:36:04;7.43;;;4.93;;
11628;SDS011;5870;52.320;4.970;2022-08-14T03:38:40;8.98;;;5.15;;
11628;SDS011;5870;52.320;4.970;2022-08-14T03:41:10;8.20;;;4.80;;
11628;SDS011;5870;52.320;4.970;2022-08-14T03:43:43;8.10;;;4.68;;
11628;SDS011;5870;52.320;4.970;2022-08-14T03:46:11;5.82;;;5.20;;
11628;SDS011;5870;52.320;4.970;2022-08-14T03:48:41;8.35;;;4.90;;
11628;SDS011;5870;52.320;4.970;2022-08-14T03:51:08;11.30;;;4.63;;
11628;SDS011;5870;52.320;4.970;2022-08-14T03:53:36;9.65;;;5.13;;
11628;SDS011;5870;52.320;4.970;2022-08-14T03:56:03;6.65;;;5.18;;
11628;SDS011;5870;52.320;4.970;2022-08-14T03:58:30;10.68;;;5.22;;
11628;SDS011;5870;52.320;4.970;2022-08-14T04:00:57;11.23;;;4.57;;
11628;SDS011;5870;52.320;4.970;2022-08-14T04:03:23;8.30;;;4.07;;
11628;SDS011;5870;52.320;4.970;2022-08-14T04:05:50;8.43;;;5.05;;
11628;SDS011;5870;52.320;4.970;2022-08-14T04:08:16;5.28;;;4.70;;
11628;SDS011;5870;52.320;4.970;2022-08-14T04:10:42;7.90;;;4.75;;
11628;SDS011;5870;52.320;4.970;2022-08-14T04:13:10;9.35;;;4.82;;
11628;SDS011;5870;52.320;4.970;2022-08-14T04:15:36;9.65;;;5.47;;
11628;SDS011;5870;52.320;4.970;2022-08-14T04:18:05;6.90;;;4.93;;
11628;SDS011;5870;52.320;4.970;2022-08-14T04:20:32;6.30;;;5.20;;
11628;SDS011;5870;52.320;4.970;2022-08-14T04:23:03;9.45;;;4.38;;
11628;SDS011;5870;52.320;4.970;2022-08-14T04:25:31;8.00;;;5.25;;
11628;SDS011;5870;52.320;4.970;2022-08-14T04:28:00;11.43;;;5.30;;
11628;SDS011;5870;52.320;4.970;2022-08-14T04:30:30;5.35;;;4.85;;
11628;SDS011;5870;52.320;4.970;2022-08-14T04:32:57;8.18;;;4.60;;
11628;SDS011;5870;52.320;4.970;2022-08-14T04:35:23;5.20;;;4.70;;
11628;SDS011;5870;52.320;4.970;2022-08-14T04:37:48;7.18;;;5.28;;
11628;SDS011;5870;52.320;4.970;2022-08-14T04:40:33;6.95;;;5.40;;
11628;SDS011;5870;52.320;4.970;2022-08-14T04:43:17;5.80;;;4.65;;
11628;SDS011;5870;52.320;4.970;2022-08-14T04:46:02;6.20;;;5.25;;
11628;SDS011;5870;52.320;4.970;2022-08-14T04:48:29;7.15;;;5.43;;
11628;SDS011;5870;52.320;4.970;2022-08-14T04:50:54;8.75;;;4.97;;
11628;SDS011;5870;52.320;4.970;2022-08-14T04:53:27;9.90;;;4.82;;
11628;SDS011;5870;52.320;4.970;2022-08-14T04:55:54;7.85;;;4.85;;
11628;SDS011;5870;52.320;4.970;2022-08-14T04:58:23;7.57;;;5.47;;
11628;SDS011;5870;52.320;4.970;2022-08-14T05:00:52;8.23;;;5.20;;
11628;SDS011;5870;52.320;4.970;2022-08-14T05:03:26;8.60;;;5.00;;
11628;SDS011;5870;52.320;4.970;2022-08-14T05:05:57;6.85;;;5.40;;
11628;SDS011;5870;52.320;4.970;2022-08-14T05:08:24;8.48;;;5.38;;
11628;SDS011;5870;52.320;4.970;2022-08-14T05:10:51;6.85;;;5.30;;
11628;SDS011;5870;52.320;4.970;2022-08-14T05:13:18;5.88;;;5.25;;
11628;SDS011;5870;52.320;4.970;2022-08-14T05:15:46;7.57;;;5.43;;
11628;SDS011;5870;52.320;4.970;2022-08-14T05:18:13;6.40;;;5.55;;
11628;SDS011;5870;52.320;4.970;2022-08-14T05:20:45;9.35;;;5.40;;
11628;SDS011;5870;52.320;4.970;2022-08-14T05:23:13;7.93;;;5.45;;
11628;SDS011;5870;52.320;4.970;2022-08-14T05:25:50;6.03;;;4.93;;
11628;SDS011;5870;52.320;4.970;2022-08-14T05:28:25;8.48;;;5.70;;
11628;SDS011;5870;52.320;4.970;2022-08-14T05:30:53;7.20;;;5.63;;
11628;SDS011;5870;52.320;4.970;2022-08-14T05:33:21;9.93;;;5.40;;
11628;SDS011;5870;52.320;4.970;2022-08-14T05:35:49;13.63;;;5.65;;
11628;SDS011;5870;52.320;4.970;2022-08-14T05:38:17;7.47;;;5.60;;
11628;SDS011;5870;52.320;4.970;2022-08-14T05:40:46;8.98;;;5.82;;
11628;SDS011;5870;52.320;4.970;2022-08-14T05:43:13;7.88;;;4.90;;
11628;SDS011;5870;52.320;4.970;2022-08-14T05:45:39;8.82;;;5.60;;
11628;SDS011;5870;52.320;4.970;2022-08-14T05:48:06;6.20;;;5.57;;
11628;SDS011;5870;52.320;4.970;2022-08-14T05:50:33;7.93;;;5.40;;
11628;SDS011;5870;52.320;4.970;2022-08-14T05:52:59;7.05;;;5.45;;
11628;SDS011;5870;52.320;4.970;2022-08-14T05:55:26;6.72;;;5.63;;
11628;SDS011;5870;52.320;4.970;2022-08-14T05:57:55;6.90;;;5.63;;
11628;SDS011;5870;52.320;4.970;2022-08-14T06:00:44;9.80;;;5.40;;
11628;SDS011;5870;52.320;4.970;2022-08-14T06:03:11;7.32;;;5.85;;
11628;SDS011;5870;52.320;4.970;2022-08-14T06:05:40;5.93;;;5.30;;
11628;SDS011;5870;52.320;4.970;2022-08-14T06:08:16;8.07;;;5.55;;
11628;SDS011;5870;52.320;4.970;2022-08-14T06:10:43;7.97;;;5.45;;
11628;SDS011;5870;52.320;4.970;2022-08-14T06:13:09;8.55;;;5.32;;
11628;SDS011;5870;52.320;4.970;2022-08-14T06:15:35;13.88;;;5.47;;
11628;SDS011;5870;52.320;4.970;2022-08-14T06:18:01;11.27;;;5.75;;
11628;SDS011;5870;52.320;4.970;2022-08-14T06:20:27;14.18;;;5.85;;
11628;SDS011;5870;52.320;4.970;2022-08-14T06:22:53;7.10;;;5.80;;
11628;SDS011;5870;52.320;4.970;2022-08-14T06:25:20;8.07;;;5.40;;
11628;SDS011;5870;52.320;4.970;2022-08-14T06:27:46;5.68;;;5.10;;
11628;SDS011;5870;52.320;4.970;2022-08-14T06:30:17;7.22;;;5.32;;
11628;SDS011;5870;52.320;4.970;2022-08-14T06:32:44;8.30;;;6.18;;
11628;SDS011;5870;52.320;4.970;2022-08-14T06:35:10;12.45;;;5.82;;
11628;SDS011;5870;52.320;4.970;2022-08-14T06:37:42;11.75;;;6.22;;
11628;SDS011;5870;52.320;4.970;2022-08-14T06:40:10;11.52;;;5.63;;
11628;SDS011;5870;52.320;4.970;2022-08-14T06:42:38;14.75;;;6.07;;
11628;SDS011;5870;52.320;4.970;2022-08-14T06:45:04;8.10;;;5.82;;
11628;SDS011;5870;52.320;4.970;2022-08-14T06:47:34;10.43;;;5.68;;
11628;SDS011;5870;52.320;4.970;2022-08-14T06:50:01;8.38;;;5.65;;
11628;SDS011;5870;52.320;4.970;2022-08-14T06:52:29;6.72;;;5.03;;
11628;SDS011;5870;52.320;4.970;2022-08-14T06:54:55;11.65;;;6.18;;
11628;SDS011;5870;52.320;4.970;2022-08-14T06:57:21;10.68;;;5.32;;
11628;SDS011;5870;52.320;4.970;2022-08-14T06:59:47;11.70;;;6.15;;
11628;SDS011;5870;52.320;4.970;2022-08-14T07:02:13;6.15;;;5.53;;
11628;SDS011;5870;52.320;4.970;2022-08-14T07:04:57;7.55;;;5.70;;
11628;SDS011;5870;52.320;4.970;2022-08-14T07:07:41;9.43;;;5.93;;
11628;SDS011;5870;52.320;4.970;2022-08-14T07:10:08;10.88;;;5.43;;
11628;SDS011;5870;52.320;4.970;2022-08-14T07:12:34;10.13;;;7.43;;
11628;SDS011;5870;52.320;4.970;2022-08-14T07:15:00;20.30;;;14.95;;
11628;SDS011;5870;52.320;4.970;2022-08-14T07:17:26;14.95;;;7.20;;
11628;SDS011;5870;52.320;4.970;2022-08-14T07:19:51;10.07;;;5.80;;
11628;SDS011;5870;52.320;4.970;2022-08-14T07:22:17;7.07;;;5.97;;
11628;SDS011;5870;52.320;4.970;2022-08-14T07:24:43;10.73;;;6.28;;
11628;SDS011;5870;52.320;4.970;2022-08-14T07:27:08;7.53;;;5.25;;
11628;SDS011;5870;52.320;4.970;2022-08-14T07:29:34;7.85;;;5.80;;
11628;SDS011;5870;52.320;4.970;2022-08-14T07:31:59;11.23;;;5.80;;
11628;SDS011;5870;52.320;4.970;2022-08-14T07:34:25;5.93;;;5.32;;
11628;SDS011;5870;52.320;4.970;2022-08-14T07:36:51;7.50;;;5.88;;
11628;SDS011;5870;52.320;4.970;2022-08-14T07:39:16;10.20;;;6.15;;
11628;SDS011;5870;52.320;4.970;2022-08-14T07:41:42;7.50;;;5.70;;
11628;SDS011;5870;52.320;4.970;2022-08-14T07:44:08;10.90;;;6.57;;
11628;SDS011;5870;52.320;4.970;2022-08-14T07:46:35;13.00;;;6.40;;
11628;SDS011;5870;52.320;4.970;2022-08-14T07:49:02;6.78;;;6.07;;
11628;SDS011;5870;52.320;4.970;2022-08-14T07:51:28;7.57;;;5.85;;
11628;SDS011;5870;52.320;4.970;2022-08-14T07:53:54;7.85;;;6.22;;
11628;SDS011;5870;52.320;4.970;2022-08-14T07:56:21;7.07;;;5.72;;
11628;SDS011;5870;52.320;4.970;2022-08-14T07:58:47;10.82;;;5.65;;
11628;SDS011;5870;52.320;4.970;2022-08-14T08:01:13;9.63;;;6.03;;
11628;SDS011;5870;52.320;4.970;2022-08-14T08:03:41;10.93;;;6.28;;
11628;SDS011;5870;52.320;4.970;2022-08-14T08:06:10;9.75;;;5.65;;
11628;SDS011;5870;52.320;4.970;2022-08-14T08:08:36;8.70;;;6.18;;
11628;SDS011;5870;52.320;4.970;2022-08-14T08:11:02;10.38;;;5.88;;
11628;SDS011;5870;52.320;4.970;2022-08-14T08:13:28;11.90;;;5.57;;
11628;SDS011;5870;52.320;4.970;2022-08-14T08:15:57;13.18;;;6.40;;
11628;SDS011;5870;52.320;4.970;2022-08-14T08:18:23;8.27;;;5.22;;
11628;SDS011;5870;52.320;4.970;2022-08-14T08:20:51;7.75;;;5.43;;
11628;SDS011;5870;52.320;4.970;2022-08-14T08:23:19;11.20;;;5.68;;
11628;SDS011;5870;52.320;4.970;2022-08-14T08:25:47;8.00;;;5.65;;
11628;SDS011;5870;52.320;4.970;2022-08-14T08:28:16;11.38;;;6.00;;
11628;SDS011;5870;52.320;4.970;2022-08-14T08:30:47;7.13;;;5.75;;
11628;SDS011;5870;52.320;4.970;2022-08-14T08:33:13;5.88;;;5.28;;
11628;SDS011;5870;52.320;4.970;2022-08-14T08:35:40;5.75;;;5.18;;
11628;SDS011;5870;52.320;4.970;2022-08-14T08:38:07;12.15;;;5.70;;
11628;SDS011;5870;52.320;4.970;2022-08-14T08:40:39;11.95;;;6.30;;
11628;SDS011;5870;52.320;4.970;2022-08-14T08:43:16;7.63;;;6.07;;
11628;SDS011;5870;52.320;4.970;2022-08-14T08:45:57;9.43;;;5.30;;
11628;SDS011;5870;52.320;4.970;2022-08-14T08:48:24;7.25;;;5.20;;
11628;SDS011;5870;52.320;4.970;2022-08-14T08:50:58;8.77;;;6.43;;
11628;SDS011;5870;52.320;4.970;2022-08-14T08:53:29;10.98;;;5.82;;
11628;SDS011;5870;52.320;4.970;2022-08-14T08:55:57;6.20;;;5.57;;
11628;SDS011;5870;52.320;4.970;2022-08-14T08:58:24;7.43;;;5.55;;
11628;SDS011;5870;52.320;4.970;2022-08-14T09:00:51;10.23;;;5.30;;
11628;SDS011;5870;52.320;4.970;2022-08-14T09:03:19;6.90;;;6.00;;
11628;SDS011;5870;52.320;4.970;2022-08-14T09:05:52;11.55;;;5.28;;
11628;SDS011;5870;52.320;4.970;2022-08-14T09:08:31;9.07;;;5.32;;
11628;SDS011;5870;52.320;4.970;2022-08-14T09:10:59;9.57;;;5.28;;
11628;SDS011;5870;52.320;4.970;2022-08-14T09:13:26;9.98;;;4.82;;
11628;SDS011;5870;52.320;4.970;2022-08-14T09:15:53;7.60;;;5.35;;
11628;SDS011;5870;52.320;4.970;2022-08-14T09:18:20;6.20;;;5.20;;
11628;SDS011;5870;52.320;4.970;2022-08-14T09:20:48;10.02;;;5.55;;
11628;SDS011;5870;52.320;4.970;2022-08-14T09:23:16;11.18;;;5.45;;
11628;SDS011;5870;52.320;4.970;2022-08-14T09:25:42;6.65;;;5.35;;
11628;SDS011;5870;52.320;4.970;2022-08-14T09:28:10;13.10;;;6.20;;
11628;SDS011;5870;52.320;4.970;2022-08-14T09:30:38;9.98;;;5.65;;
11628;SDS011;5870;52.320;4.970;2022-08-14T09:38:46;7.53;;;5.50;;
11628;SDS011;5870;52.320;4.970;2022-08-14T09:44:17;7.05;;;5.70;;
11628;SDS011;5870;52.320;4.970;2022-08-14T09:46:56;6.30;;;5.07;;
11628;SDS011;5870;52.320;4.970;2022-08-14T09:49:32;8.07;;;5.60;;
11628;SDS011;5870;52.320;4.970;2022-08-14T09:52:06;6.80;;;5.90;;
11628;SDS011;5870;52.320;4.970;2022-08-14T09:54:44;9.02;;;5.63;;
11628;SDS011;5870;52.320;4.970;2022-08-14T09:57:24;13.30;;;5.78;;
11628;SDS011;5870;52.320;4.970;2022-08-14T09:59:51;8.23;;;5.95;;
11628;SDS011;5870;52.320;4.970;2022-08-14T10:02:21;6.30;;;5.50;;
11628;SDS011;5870;52.320;4.970;2022-08-14T10:05:05;11.75;;;5.55;;
11628;SDS011;5870;52.320;4.970;2022-08-14T10:07:36;7.07;;;5.07;;
11628;SDS011;5870;52.320;4.970;2022-08-14T10:12:58;10.82;;;5.50;;
11628;SDS011;5870;52.320;4.970;2022-08-14T10:15:26;9.38;;;4.85;;
11628;SDS011;5870;52.320;4.970;2022-08-14T10:18:13;8.13;;;5.20;;
11628;SDS011;5870;52.320;4.970;2022-08-14T10:20:50;5.72;;;4.90;;
11628;SDS011;5870;52.320;4.970;2022-08-14T10:23:20;7.80;;;4.72;;
11628;SDS011;5870;52.320;4.970;2022-08-14T10:25:48;15.75;;;5.40;;
11628;SDS011;5870;52.320;4.970;2022-08-14T10:28:17;7.72;;;4.63;;
11628;SDS011;5870;52.320;4.970;2022-08-14T10:30:45;5.65;;;4.75;;
11628;SDS011;5870;52.320;4.970;2022-08-14T10:33:50;7.38;;;4.95;;
11628;SDS011;5870;52.320;4.970;2022-08-14T10:36:10;7.97;;;5.60;;
11628;SDS011;5870;52.320;4.970;2022-08-14T10:38:36;6.40;;;4.78;;
11628;SDS011;5870;52.320;4.970;2022-08-14T10:41:15;5.85;;;5.25;;
11628;SDS011;5870;52.320;4.970;2022-08-14T10:43:42;21.75;;;14.80;;
11628;SDS011;5870;52.320;4.970;2022-08-14T10:46:16;14.30;;;9.77;;
11628;SDS011;5870;52.320;4.970;2022-08-14T10:48:55;6.93;;;5.35;;
11628;SDS011;5870;52.320;4.970;2022-08-14T10:51:27;5.63;;;5.03;;
11628;SDS011;5870;52.320;4.970;2022-08-14T10:53:54;6.15;;;4.93;;
11628;SDS011;5870;52.320;4.970;2022-08-14T10:56:31;7.68;;;5.00;;
11628;SDS011;5870;52.320;4.970;2022-08-14T10:59:06;8.98;;;5.35;;
11628;SDS011;5870;52.320;4.970;2022-08-14T11:01:36;6.53;;;4.95;;
11628;SDS011;5870;52.320;4.970;2022-08-14T11:04:02;5.72;;;5.07;;
11628;SDS011;5870;52.320;4.970;2022-08-14T11:06:29;12.13;;;4.75;;
11628;SDS011;5870;52.320;4.970;2022-08-14T11:08:56;6.45;;;5.15;;
11628;SDS011;5870;52.320;4.970;2022-08-14T11:11:23;4.95;;;4.38;;
11628;SDS011;5870;52.320;4.970;2022-08-14T11:13:53;7.72;;;4.53;;
11628;SDS011;5870;52.320;4.970;2022-08-14T11:16:21;5.38;;;4.63;;
11628;SDS011;5870;52.320;4.970;2022-08-14T11:18:48;11.52;;;4.45;;
11628;SDS011;5870;52.320;4.970;2022-08-14T11:21:15;8.00;;;4.70;;
11628;SDS011;5870;52.320;4.970;2022-08-14T11:23:44;8.18;;;5.00;;
11628;SDS011;5870;52.320;4.970;2022-08-14T11:26:13;6.28;;;3.67;;
11628;SDS011;5870;52.320;4.970;2022-08-14T11:28:43;6.25;;;4.18;;
11628;SDS011;5870;52.320;4.970;2022-08-14T11:31:11;4.75;;;4.05;;
11628;SDS011;5870;52.320;4.970;2022-08-14T11:33:38;4.50;;;4.10;;
11628;SDS011;5870;52.320;4.970;2022-08-14T11:36:05;6.90;;;3.58;;
11628;SDS011;5870;52.320;4.970;2022-08-14T11:38:36;5.70;;;3.70;;
11628;SDS011;5870;52.320;4.970;2022-08-14T11:41:04;6.88;;;3.97;;
11628;SDS011;5870;52.320;4.970;2022-08-14T11:43:31;4.70;;;3.80;;
11628;SDS011;5870;52.320;4.970;2022-08-14T11:46:04;5.15;;;3.90;;
11628;SDS011;5870;52.320;4.970;2022-08-14T11:48:30;5.47;;;3.85;;
11628;SDS011;5870;52.320;4.970;2022-08-14T11:50:56;4.07;;;3.67;;
11628;SDS011;5870;52.320;4.970;2022-08-14T11:53:28;4.43;;;3.97;;
11628;SDS011;5870;52.320;4.970;2022-08-14T11:56:02;7.38;;;4.30;;
11628;SDS011;5870;52.320;4.970;2022-08-14T11:58:33;5.95;;;3.83;;
11628;SDS011;5870;52.320;4.970;2022-08-14T12:01:01;4.85;;;4.10;;
11628;SDS011;5870;52.320;4.970;2022-08-14T12:03:38;4.28;;;3.88;;
11628;SDS011;5870;52.320;4.970;2022-08-14T12:06:09;8.05;;;4.10;;
11628;SDS011;5870;52.320;4.970;2022-08-14T12:08:37;8.07;;;4.05;;
11628;SDS011;5870;52.320;4.970;2022-08-14T12:11:04;11.68;;;8.15;;
11628;SDS011;5870;52.320;4.970;2022-08-14T12:13:31;15.25;;;4.72;;
11628;SDS011;5870;52.320;4.970;2022-08-14T12:15:59;11.63;;;4.10;;
11628;SDS011;5870;52.320;4.970;2022-08-14T12:18:35;6.32;;;4.15;;
11628;SDS011;5870;52.320;4.970;2022-08-14T12:23:41;6.72;;;3.97;;
11628;SDS011;5870;52.320;4.970;2022-08-14T12:26:09;6.15;;;3.88;;
11628;SDS011;5870;52.320;4.970;2022-08-14T12:28:40;6.15;;;4.28;;
11628;SDS011;5870;52.320;4.970;2022-08-14T12:31:16;6.50;;;3.97;;
11628;SDS011;5870;52.320;4.970;2022-08-14T12:33:56;5.72;;;4.25;;
11628;SDS011;5870;52.320;4.970;2022-08-14T12:36:27;7.45;;;3.70;;
11628;SDS011;5870;52.320;4.970;2022-08-14T12:38:54;4.15;;;3.72;;
11628;SDS011;5870;52.320;4.970;2022-08-14T12:41:22;5.22;;;4.25;;
11628;SDS011;5870;52.320;4.970;2022-08-14T12:43:50;6.20;;;3.35;;
11628;SDS011;5870;52.320;4.970;2022-08-14T12:49:10;5.25;;;3.67;;
11628;SDS011;5870;52.320;4.970;2022-08-14T12:51:41;10.48;;;4.38;;
11628;SDS011;5870;52.320;4.970;2022-08-14T12:54:11;4.18;;;3.70;;
11628;SDS011;5870;52.320;4.970;2022-08-14T12:56:39;10.43;;;4.13;;
11628;SDS011;5870;52.320;4.970;2022-08-14T12:59:05;6.97;;;3.83;;
11628;SDS011;5870;52.320;4.970;2022-08-14T13:01:32;5.65;;;3.78;;
11628;SDS011;5870;52.320;4.970;2022-08-14T13:04:09;3.88;;;3.55;;
11628;SDS011;5870;52.320;4.970;2022-08-14T13:06:39;9.77;;;3.78;;
11628;SDS011;5870;52.320;4.970;2022-08-14T13:09:09;5.80;;;3.58;;
11628;SDS011;5870;52.320;4.970;2022-08-14T13:11:43;6.65;;;3.72;;
11628;SDS011;5870;52.320;4.970;2022-08-14T13:14:15;3.97;;;3.50;;
11628;SDS011;5870;52.320;4.970;2022-08-14T13:16:42;11.80;;;3.83;;
11628;SDS011;5870;52.320;4.970;2022-08-14T13:19:10;4.47;;;3.30;;
11628;SDS011;5870;52.320;4.970;2022-08-14T13:21:40;9.23;;;3.42;;
11628;SDS011;5870;52.320;4.970;2022-08-14T13:24:11;6.03;;;3.60;;
11628;SDS011;5870;52.320;4.970;2022-08-14T13:26:43;5.30;;;3.40;;
11628;SDS011;5870;52.320;4.970;2022-08-14T13:29:17;3.70;;;3.38;;
11628;SDS011;5870;52.320;4.970;2022-08-14T13:31:44;6.18;;;3.30;;
11628;SDS011;5870;52.320;4.970;2022-08-14T13:34:15;7.97;;;3.53;;
11628;SDS011;5870;52.320;4.970;2022-08-14T13:36:45;5.57;;;3.80;;
11628;SDS011;5870;52.320;4.970;2022-08-14T13:39:17;11.13;;;4.00;;
11628;SDS011;5870;52.320;4.970;2022-08-14T13:41:44;4.10;;;3.50;;
11628;SDS011;5870;52.320;4.970;2022-08-14T13:44:11;4.85;;;4.18;;
11628;SDS011;5870;52.320;4.970;2022-08-14T13:46:41;8.60;;;4.03;;
11628;SDS011;5870;52.320;4.970;2022-08-14T13:49:11;4.60;;;3.03;;
11628;SDS011;5870;52.320;4.970;2022-08-14T13:51:38;4.05;;;3.53;;
11628;SDS011;5870;52.320;4.970;2022-08-14T13:54:07;6.60;;;3.75;;
11628;SDS011;5870;52.320;4.970;2022-08-14T13:56:38;3.97;;;3.58;;
11628;SDS011;5870;52.320;4.970;2022-08-14T13:59:04;10.90;;;3.60;;
11628;SDS011;5870;52.320;4.970;2022-08-14T14:01:30;5.90;;;4.25;;
11628;SDS011;5870;52.320;4.970;2022-08-14T14:03:59;4.28;;;3.40;;
11628;SDS011;5870;52.320;4.970;2022-08-14T14:06:27;5.03;;;3.20;;
11628;SDS011;5870;52.320;4.970;2022-08-14T14:08:55;4.32;;;3.83;;
11628;SDS011;5870;52.320;4.970;2022-08-14T14:11:21;8.60;;;3.63;;
11628;SDS011;5870;52.320;4.970;2022-08-14T14:13:51;6.15;;;4.22;;
11628;SDS011;5870;52.320;4.970;2022-08-14T14:16:19;12.63;;;4.22;;
11628;SDS011;5870;52.320;4.970;2022-08-14T14:18:51;4.72;;;3.67;;
11628;SDS011;5870;52.320;4.970;2022-08-14T14:21:25;7.57;;;3.85;;
11628;SDS011;5870;52.320;4.970;2022-08-14T14:23:52;6.68;;;3.55;;
11628;SDS011;5870;52.320;4.970;2022-08-14T14:26:19;4.43;;;3.63;;
11628;SDS011;5870;52.320;4.970;2022-08-14T14:28:49;4.35;;;3.92;;
11628;SDS011;5870;52.320;4.970;2022-08-14T14:31:19;5.03;;;4.13;;
11628;SDS011;5870;52.320;4.970;2022-08-14T14:33:48;4.60;;;3.70;;
11628;SDS011;5870;52.320;4.970;2022-08-14T14:36:20;3.83;;;3.53;;
11628;SDS011;5870;52.320;4.970;2022-08-14T14:39:00;8.05;;;3.83;;
11628;SDS011;5870;52.320;4.970;2022-08-14T14:41:46;4.90;;;3.88;;
11628;SDS011;5870;52.320;4.970;2022-08-14T14:44:16;6.03;;;3.80;;
11628;SDS011;5870;52.320;4.970;2022-08-14T14:46:47;12.13;;;3.90;;
11628;SDS011;5870;52.320;4.970;2022-08-14T14:49:13;4.93;;;4.43;;
11628;SDS011;5870;52.320;4.970;2022-08-14T14:51:41;4.93;;;4.03;;
11628;SDS011;5870;52.320;4.970;2022-08-14T14:54:09;7.13;;;3.90;;
11628;SDS011;5870;52.320;4.970;2022-08-14T14:56:36;7.43;;;4.50;;
11628;SDS011;5870;52.320;4.970;2022-08-14T14:59:06;9.48;;;3.90;;
11628;SDS011;5870;52.320;4.970;2022-08-14T15:01:35;7.40;;;3.90;;
11628;SDS011;5870;52.320;4.970;2022-08-14T15:04:02;4.03;;;3.63;;
11628;SDS011;5870;52.320;4.970;2022-08-14T15:06:30;5.20;;;4.20;;
11628;SDS011;5870;52.320;4.970;2022-08-14T15:08:57;4.32;;;3.92;;
11628;SDS011;5870;52.320;4.970;2022-08-14T15:11:23;5.80;;;4.30;;
11628;SDS011;5870;52.320;4.970;2022-08-14T15:13:50;4.22;;;3.90;;
11628;SDS011;5870;52.320;4.970;2022-08-14T15:16:16;10.35;;;4.07;;
11628;SDS011;5870;52.320;4.970;2022-08-14T15:18:42;9.32;;;3.85;;
11628;SDS011;5870;52.320;4.970;2022-08-14T15:21:10;4.88;;;3.97;;
11628;SDS011;5870;52.320;4.970;2022-08-14T15:23:36;10.05;;;3.70;;
11628;SDS011;5870;52.320;4.970;2022-08-14T15:26:02;4.00;;;3.67;;
11628;SDS011;5870;52.320;4.970;2022-08-14T15:28:28;6.18;;;4.10;;